createdAt,value
2018-12-04T00:00:01.596Z,991.09
2018-12-04T00:05:01.872Z,991.22
2018-12-04T00:10:02.110Z,991.27
2018-12-04T00:15:01.374Z,991.47
2018-12-04T00:20:01.634Z,991.57
2018-12-04T00:25:01.876Z,991.67
2018-12-04T00:30:02.130Z,991.72
2018-12-04T00:35:01.487Z,991.89
2018-12-04T00:40:01.798Z,992.06
2018-12-04T00:45:02.019Z,992.23
2018-12-04T00:50:01.320Z,992.43
2018-12-04T00:55:01.579Z,992.75
2018-12-04T01:00:01.854Z,993.02
2018-12-04T01:05:02.165Z,993.13
2018-12-04T01:10:01.374Z,993.24
2018-12-04T01:15:01.605Z,993.4
2018-12-04T01:20:01.903Z,993.58
2018-12-04T01:25:02.166Z,993.89
2018-12-04T01:30:01.447Z,994.06
2018-12-04T01:35:01.783Z,994.12
2018-12-04T01:40:02.012Z,994.17
2018-12-04T01:45:01.464Z,994.28
2018-12-04T01:50:01.721Z,994.42
2018-12-04T01:55:02.004Z,994.52
2018-12-04T02:00:01.315Z,994.65
2018-12-04T02:05:01.848Z,994.76
2018-12-04T02:10:02.074Z,994.81
2018-12-04T02:15:01.785Z,994.83
2018-12-04T02:20:02.017Z,994.97
2018-12-04T02:25:01.295Z,995.1
2018-12-04T02:30:01.575Z,995.3
2018-12-04T02:35:01.836Z,995.42
2018-12-04T02:40:02.090Z,995.45
2018-12-04T02:45:01.373Z,995.42
2018-12-04T02:50:01.647Z,995.57
2018-12-04T02:55:01.917Z,995.69
2018-12-04T03:00:02.160Z,995.84
2018-12-04T03:05:01.449Z,995.87
2018-12-04T03:10:01.719Z,995.98
2018-12-04T03:15:01.998Z,996.05
2018-12-04T03:20:02.135Z,996.12
2018-12-04T03:25:01.414Z,996.21
2018-12-04T03:30:01.712Z,996.36
2018-12-04T03:35:01.965Z,996.49
2018-12-04T03:40:01.756Z,996.52
2018-12-04T03:45:01.975Z,996.62
2018-12-04T03:50:01.240Z,996.68
2018-12-04T03:55:01.541Z,996.73
2018-12-04T04:00:01.898Z,996.83
2018-12-04T04:05:02.125Z,996.88
2018-12-04T04:10:01.402Z,997
2018-12-04T04:15:01.756Z,996.96
2018-12-04T04:20:02.010Z,997.14
2018-12-04T04:25:01.253Z,997.27
2018-12-04T04:30:01.515Z,997.4
2018-12-04T04:35:01.806Z,997.48
2018-12-04T04:40:02.060Z,997.59
2018-12-04T04:45:01.322Z,997.55
2018-12-04T04:50:01.581Z,997.67
2018-12-04T04:55:01.863Z,997.71
2018-12-04T05:00:02.121Z,997.78
2018-12-04T05:05:01.409Z,997.85
2018-12-04T05:10:01.697Z,997.9
2018-12-04T05:15:01.946Z,998.04
2018-12-04T05:20:02.197Z,998.18
2018-12-04T05:25:01.447Z,998.27
2018-12-04T05:30:01.696Z,998.37
2018-12-04T05:35:02.185Z,998.49
2018-12-04T05:40:01.487Z,998.6
2018-12-04T05:45:01.762Z,998.66
2018-12-04T05:50:02.017Z,998.74
2018-12-04T05:55:01.305Z,998.88
2018-12-04T06:00:01.563Z,998.97
2018-12-04T06:05:01.829Z,999.06
2018-12-04T06:10:02.078Z,999.15
2018-12-04T06:15:01.336Z,999.4
2018-12-04T06:20:01.605Z,999.53
2018-12-04T06:25:01.848Z,999.69
2018-12-04T06:30:02.068Z,999.64
2018-12-04T06:35:01.374Z,999.82
2018-12-04T06:40:01.634Z,999.96
2018-12-04T06:45:01.912Z,1000.03
2018-12-04T06:50:02.137Z,1000.19
2018-12-04T06:55:01.394Z,1000.26
2018-12-04T07:00:01.646Z,1000.42
2018-12-04T07:05:01.959Z,1000.51
2018-12-04T07:10:02.176Z,1000.65
2018-12-04T07:15:01.428Z,1000.78
2018-12-04T07:20:01.702Z,1000.83
2018-12-04T07:25:01.963Z,1001.02
2018-12-04T07:30:02.189Z,1001.11
2018-12-04T07:35:01.487Z,1001.29
2018-12-04T07:40:01.742Z,1001.37
2018-12-04T07:45:02.011Z,1001.47
2018-12-04T07:50:01.328Z,1001.6
2018-12-04T07:55:01.605Z,1001.72
2018-12-04T08:00:01.826Z,1001.82
2018-12-04T08:05:02.059Z,1001.9
2018-12-04T08:10:01.339Z,1001.98
2018-12-04T08:15:01.613Z,1002.17
2018-12-04T08:20:01.883Z,1002.3
2018-12-04T08:25:02.123Z,1002.36
2018-12-04T08:30:01.428Z,1002.5
2018-12-04T08:35:01.752Z,1002.59
2018-12-04T08:40:02.076Z,1002.63
2018-12-04T08:45:01.327Z,1002.68
2018-12-04T08:50:01.593Z,1002.83
2018-12-04T08:55:01.848Z,1002.92
2018-12-04T09:00:02.072Z,1003.1
2018-12-04T09:05:01.367Z,1003.17
2018-12-04T09:10:01.646Z,1003.29
2018-12-04T09:15:01.922Z,1003.33
2018-12-04T09:20:02.271Z,1003.52
2018-12-04T09:25:01.609Z,1003.62
2018-12-04T09:30:02.035Z,1003.7
2018-12-04T09:35:01.350Z,1003.9
2018-12-04T09:40:01.642Z,1003.94
2018-12-04T09:45:01.909Z,1004.09
2018-12-04T09:50:02.127Z,1004.29
2018-12-04T09:55:01.366Z,1004.34
2018-12-04T10:00:01.665Z,1004.27
2018-12-04T10:05:01.908Z,1004.39
2018-12-04T10:10:02.181Z,1004.48
2018-12-04T10:15:01.464Z,1004.54
2018-12-04T10:20:01.727Z,1004.65
2018-12-04T10:25:01.976Z,1004.66
2018-12-04T10:30:02.190Z,1004.76
2018-12-04T10:35:01.455Z,1004.76
2018-12-04T10:40:01.694Z,1004.72
2018-12-04T10:45:01.954Z,1004.86
2018-12-04T10:50:02.171Z,1004.91
2018-12-04T10:55:01.429Z,1004.88
2018-12-04T11:00:01.654Z,1004.9
2018-12-04T11:05:01.933Z,1004.99
2018-12-04T11:10:02.157Z,1004.96
2018-12-04T11:15:01.400Z,1004.96
2018-12-04T11:20:01.630Z,1004.99
2018-12-04T11:25:01.884Z,1005.01
2018-12-04T11:30:02.109Z,1005.08
2018-12-04T11:35:01.352Z,1005.17
2018-12-04T11:40:01.633Z,1005.22
2018-12-04T11:45:01.883Z,1005.24
2018-12-04T11:50:02.129Z,1005.39
2018-12-04T11:55:01.384Z,1005.37
2018-12-04T12:00:01.618Z,1005.41
2018-12-04T12:05:01.878Z,1005.46
2018-12-04T12:10:02.171Z,1005.48
2018-12-04T12:15:01.414Z,1005.5
2018-12-04T12:20:01.711Z,1005.55
2018-12-04T12:25:02.007Z,1005.7
2018-12-04T12:30:01.307Z,1005.71
2018-12-04T12:35:01.615Z,1005.65
2018-12-04T12:40:01.883Z,1005.71
2018-12-04T12:45:02.113Z,1005.83
2018-12-04T12:50:01.376Z,1005.9
2018-12-04T12:55:01.630Z,1005.96
2018-12-04T13:00:01.898Z,1005.95
2018-12-04T13:05:02.179Z,1006.05
2018-12-04T13:10:01.474Z,1006.06
2018-12-04T13:15:01.742Z,1006.22
2018-12-04T13:20:01.992Z,1006.33
2018-12-04T13:25:01.254Z,1006.31
2018-12-04T13:30:01.536Z,1006.27
2018-12-04T13:35:01.869Z,1006.36
2018-12-04T13:40:02.158Z,1006.47
2018-12-04T13:45:01.444Z,1006.55
2018-12-04T13:50:01.744Z,1006.58
2018-12-04T13:55:02.109Z,1006.67
2018-12-04T14:00:01.405Z,1006.76
2018-12-04T14:05:08.330Z,1006.81
2018-12-04T14:10:01.669Z,1006.88
2018-12-04T14:15:02.064Z,1006.87
2018-12-04T14:20:01.355Z,1006.9
2018-12-04T14:25:01.679Z,1007.02
2018-12-04T14:30:02.061Z,1007.17
2018-12-04T14:35:01.386Z,1007.22
2018-12-04T14:40:01.779Z,1007.34
2018-12-04T14:45:02.163Z,1007.37
2018-12-04T14:50:01.498Z,1007.41
2018-12-04T14:55:01.816Z,1007.37
2018-12-04T15:00:02.150Z,1007.47
2018-12-04T15:05:01.571Z,1007.53
2018-12-04T15:10:01.965Z,1007.58
2018-12-04T15:15:02.330Z,1007.56
2018-12-04T15:20:01.669Z,1007.57
2018-12-04T15:25:02.001Z,1007.76
2018-12-04T15:30:01.410Z,1007.74
2018-12-04T15:35:01.740Z,1007.91
2018-12-04T15:40:02.116Z,1007.95
2018-12-04T15:45:01.585Z,1007.98
2018-12-04T15:50:01.922Z,1008.08
2018-12-04T15:55:02.273Z,1008.14
2018-12-04T16:00:01.538Z,1008.19
2018-12-04T16:05:01.776Z,1008.15
2018-12-04T16:10:02.010Z,1008.29
2018-12-04T16:15:01.279Z,1008.43
2018-12-04T16:20:01.537Z,1008.48
2018-12-04T16:25:01.777Z,1008.67
2018-12-04T16:30:02.024Z,1008.62
2018-12-04T16:35:01.278Z,1008.56
2018-12-04T16:40:01.534Z,1008.6
2018-12-04T16:45:01.770Z,1008.62
2018-12-04T16:50:02.014Z,1008.69
2018-12-04T16:55:01.258Z,1008.65
2018-12-04T17:00:01.490Z,1008.6
2018-12-04T17:05:01.789Z,1008.67
2018-12-04T17:10:02.027Z,1008.67
2018-12-04T17:15:01.283Z,1008.64
2018-12-04T17:20:01.538Z,1008.7
2018-12-04T17:25:01.800Z,1008.74
2018-12-04T17:30:02.079Z,1008.76
2018-12-04T17:35:01.371Z,1008.84
2018-12-04T17:40:01.620Z,1008.89
2018-12-04T17:45:01.855Z,1008.94
2018-12-04T17:50:02.178Z,1008.98
2018-12-04T17:55:01.435Z,1009.05
2018-12-04T18:00:01.684Z,1009.01
2018-12-04T18:05:01.926Z,1009.09
2018-12-04T18:10:02.184Z,1009.02
2018-12-04T18:15:01.464Z,1009.09
2018-12-04T18:20:01.751Z,1009.18
2018-12-04T18:25:01.987Z,1009.19
2018-12-04T18:30:01.293Z,1009.27
2018-12-04T18:35:01.574Z,1009.35
2018-12-04T18:40:01.834Z,1009.37
2018-12-04T18:45:02.052Z,1009.44
2018-12-04T18:50:01.315Z,1009.4
2018-12-04T18:55:01.578Z,1009.44
2018-12-04T19:00:01.841Z,1009.46
2018-12-04T19:05:02.095Z,1009.45
2018-12-04T19:10:01.368Z,1009.47
2018-12-04T19:15:01.654Z,1009.52
2018-12-04T19:20:01.921Z,1009.58
2018-12-04T19:25:02.147Z,1009.61
2018-12-04T19:30:01.418Z,1009.65
2018-12-04T19:35:02.097Z,1009.59
2018-12-04T19:40:01.401Z,1009.58
2018-12-04T19:45:01.733Z,1009.68
2018-12-04T19:50:01.958Z,1009.76
2018-12-04T19:55:02.172Z,1009.85
2018-12-04T20:00:01.443Z,1009.91
2018-12-04T20:05:01.731Z,1010
2018-12-04T20:10:01.999Z,1009.99
2018-12-04T20:15:01.266Z,1010.08
2018-12-04T20:20:01.544Z,1010.05
2018-12-04T20:25:01.831Z,1010.03
2018-12-04T20:30:02.080Z,1010.13
2018-12-04T20:35:01.343Z,1010.13
2018-12-04T20:40:01.608Z,1010.25
2018-12-04T20:45:01.876Z,1010.26
2018-12-04T20:50:02.128Z,1010.34
2018-12-04T20:55:09.344Z,1010.27
2018-12-04T21:00:01.623Z,1010.33
2018-12-04T21:05:01.854Z,1010.36
2018-12-04T21:10:02.079Z,1010.41
2018-12-04T21:15:01.602Z,1010.4
2018-12-04T21:20:01.888Z,1010.43
2018-12-04T21:25:02.144Z,1010.44
2018-12-04T21:30:01.402Z,1010.38
2018-12-04T21:35:01.691Z,1010.37
2018-12-04T21:40:01.962Z,1010.43
2018-12-04T21:45:02.175Z,1010.41
2018-12-04T21:50:01.411Z,1010.36
2018-12-04T21:55:01.680Z,1010.29
2018-12-04T22:00:01.959Z,1010.31
2018-12-04T22:05:02.188Z,1010.37
2018-12-04T22:10:01.451Z,1010.49
2018-12-04T22:15:01.728Z,1010.54
2018-12-04T22:20:01.985Z,1010.48
2018-12-04T22:25:01.268Z,1010.49
2018-12-04T22:30:01.532Z,1010.45
2018-12-04T22:35:01.821Z,1010.54
2018-12-04T22:40:02.074Z,1010.65
2018-12-04T22:45:01.316Z,1010.66
2018-12-04T22:50:01.584Z,1010.6
2018-12-04T22:55:01.855Z,1010.57
2018-12-04T23:00:02.101Z,1010.5
2018-12-04T23:05:01.360Z,1010.55
2018-12-04T23:10:01.605Z,1010.55
2018-12-04T23:15:01.874Z,1010.5
2018-12-04T23:20:02.176Z,1010.52
2018-12-04T23:25:01.456Z,1010.47
2018-12-04T23:30:01.738Z,1010.51
2018-12-04T23:35:02.023Z,1010.47
2018-12-04T23:40:01.318Z,1010.45
2018-12-04T23:45:01.604Z,1010.41
2018-12-04T23:50:01.861Z,1010.42
2018-12-04T23:55:02.100Z,1010.43
